sensor_id;sensor_type;location;lat;lon;timestamp;pressure;altitude;pressure_sealevel;temperature;humidity
23427;BME280;41148;45.420;10.952;2023-12-04T00:01:50;101641.88;;;2.81;75.81
23427;BME280;41148;45.420;10.952;2023-12-04T00:04:18;101637.38;;;2.76;76.21
23427;BME280;41148;45.420;10.952;2023-12-04T00:06:45;101626.84;;;2.76;75.94
23427;BME280;41148;45.420;10.952;2023-12-04T00:09:13;101644.00;;;3.01;75.48
23427;BME280;41148;45.420;10.952;2023-12-04T00:11:40;101633.34;;;2.95;74.43
23427;BME280;41148;45.420;10.952;2023-12-04T00:14:08;101627.31;;;3.00;73.92
23427;BME280;41148;45.420;10.952;2023-12-04T00:16:35;101632.78;;;3.11;74.07
23427;BME280;41148;45.420;10.952;2023-12-04T00:19:03;101638.25;;;3.23;73.49
23427;BME280;41148;45.420;10.952;2023-12-04T00:21:31;101633.00;;;3.26;73.18
23427;BME280;41148;45.420;10.952;2023-12-04T00:23:58;101633.75;;;3.17;73.25
23427;BME280;41148;45.420;10.952;2023-12-04T00:26:26;101640.91;;;3.26;73.48
23427;BME280;41148;45.420;10.952;2023-12-04T00:28:54;101643.47;;;3.20;73.44
23427;BME280;41148;45.420;10.952;2023-12-04T00:31:21;101629.00;;;2.98;74.30
23427;BME280;41148;45.420;10.952;2023-12-04T00:33:49;101637.72;;;2.94;74.50
23427;BME280;41148;45.420;10.952;2023-12-04T00:36:16;101625.50;;;2.98;74.44
23427;BME280;41148;45.420;10.952;2023-12-04T00:38:45;101621.19;;;3.01;74.58
23427;BME280;41148;45.420;10.952;2023-12-04T00:41:13;101636.16;;;3.05;74.80
23427;BME280;41148;45.420;10.952;2023-12-04T00:43:40;101623.81;;;3.01;74.24
23427;BME280;41148;45.420;10.952;2023-12-04T00:46:08;101610.34;;;2.84;73.92
23427;BME280;41148;45.420;10.952;2023-12-04T00:48:39;101619.41;;;3.00;73.88
23427;BME280;41148;45.420;10.952;2023-12-04T00:51:08;101599.16;;;2.98;73.36
23427;BME280;41148;45.420;10.952;2023-12-04T00:53:35;101606.44;;;3.11;73.05
23427;BME280;41148;45.420;10.952;2023-12-04T00:56:03;101611.59;;;3.06;74.05
23427;BME280;41148;45.420;10.952;2023-12-04T00:58:31;101602.94;;;3.10;73.21
23427;BME280;41148;45.420;10.952;2023-12-04T01:00:58;101604.56;;;3.04;73.07
23427;BME280;41148;45.420;10.952;2023-12-04T01:03:26;101599.59;;;3.21;72.63
23427;BME280;41148;45.420;10.952;2023-12-04T01:05:54;101603.94;;;3.19;74.11
23427;BME280;41148;45.420;10.952;2023-12-04T01:08:21;101601.03;;;3.03;74.55
23427;BME280;41148;45.420;10.952;2023-12-04T01:10:50;101598.44;;;3.06;75.42
23427;BME280;41148;45.420;10.952;2023-12-04T01:13:18;101593.03;;;2.99;76.71
23427;BME280;41148;45.420;10.952;2023-12-04T01:15:45;101595.50;;;2.88;77.53
23427;BME280;41148;45.420;10.952;2023-12-04T01:18:14;101601.53;;;2.81;76.88
23427;BME280;41148;45.420;10.952;2023-12-04T01:20:41;101601.59;;;2.85;76.16
23427;BME280;41148;45.420;10.952;2023-12-04T01:23:10;101607.84;;;2.91;76.54
23427;BME280;41148;45.420;10.952;2023-12-04T01:25:38;101608.66;;;2.88;76.62
23427;BME280;41148;45.420;10.952;2023-12-04T01:28:05;101605.22;;;2.91;77.56
23427;BME280;41148;45.420;10.952;2023-12-04T01:30:33;101614.94;;;2.95;77.56
23427;BME280;41148;45.420;10.952;2023-12-04T01:33:00;101599.88;;;2.89;77.31
23427;BME280;41148;45.420;10.952;2023-12-04T01:35:28;101606.81;;;2.82;77.48
23427;BME280;41148;45.420;10.952;2023-12-04T01:37:55;101597.00;;;2.74;77.62
23427;BME280;41148;45.420;10.952;2023-12-04T01:40:23;101605.69;;;2.70;78.00
23427;BME280;41148;45.420;10.952;2023-12-04T01:42:50;101606.38;;;2.59;79.91
23427;BME280;41148;45.420;10.952;2023-12-04T01:45:18;101610.66;;;2.53;79.33
23427;BME280;41148;45.420;10.952;2023-12-04T01:47:46;101605.38;;;2.53;76.74
23427;BME280;41148;45.420;10.952;2023-12-04T01:50:15;101604.69;;;2.63;77.48
23427;BME280;41148;45.420;10.952;2023-12-04T01:52:43;101597.75;;;2.68;76.19
23427;BME280;41148;45.420;10.952;2023-12-04T01:55:12;101604.94;;;2.77;74.42
23427;BME280;41148;45.420;10.952;2023-12-04T01:57:42;101605.63;;;2.67;73.17
23427;BME280;41148;45.420;10.952;2023-12-04T02:00:09;101609.22;;;2.70;73.92
23427;BME280;41148;45.420;10.952;2023-12-04T02:02:39;101587.25;;;2.70;73.94
23427;BME280;41148;45.420;10.952;2023-12-04T02:05:08;101586.31;;;2.66;72.03
23427;BME280;41148;45.420;10.952;2023-12-04T02:07:36;101580.22;;;2.67;72.08
23427;BME280;41148;45.420;10.952;2023-12-04T02:10:04;101573.88;;;2.56;71.51
23427;BME280;41148;45.420;10.952;2023-12-04T02:12:33;101575.38;;;2.43;71.79
23427;BME280;41148;45.420;10.952;2023-12-04T02:15:01;101574.31;;;2.34;71.70
23427;BME280;41148;45.420;10.952;2023-12-04T02:17:30;101574.31;;;2.34;72.09
23427;BME280;41148;45.420;10.952;2023-12-04T02:19:59;101570.16;;;2.45;73.42
23427;BME280;41148;45.420;10.952;2023-12-04T02:22:27;101568.31;;;2.41;73.70
23427;BME280;41148;45.420;10.952;2023-12-04T02:24:54;101577.84;;;2.36;73.69
23427;BME280;41148;45.420;10.952;2023-12-04T02:27:35;101572.66;;;2.39;73.00
23427;BME280;41148;45.420;10.952;2023-12-04T02:30:06;101582.25;;;2.37;72.70
23427;BME280;41148;45.420;10.952;2023-12-04T02:32:38;101590.97;;;2.34;73.30
23427;BME280;41148;45.420;10.952;2023-12-04T02:35:10;101593.31;;;2.20;72.27
23427;BME280;41148;45.420;10.952;2023-12-04T02:37:40;101585.34;;;2.16;72.21
23427;BME280;41148;45.420;10.952;2023-12-04T02:40:08;101584.69;;;2.26;71.31
23427;BME280;41148;45.420;10.952;2023-12-04T02:42:36;101582.78;;;2.20;70.42
23427;BME280;41148;45.420;10.952;2023-12-04T02:45:03;101579.94;;;2.10;70.58
23427;BME280;41148;45.420;10.952;2023-12-04T02:47:31;101588.72;;;2.10;69.95
23427;BME280;41148;45.420;10.952;2023-12-04T02:49:58;101590.22;;;1.97;70.71
23427;BME280;41148;45.420;10.952;2023-12-04T02:52:26;101590.44;;;2.08;70.32
23427;BME280;41148;45.420;10.952;2023-12-04T02:54:53;101600.94;;;2.07;69.57
23427;BME280;41148;45.420;10.952;2023-12-04T02:57:21;101606.22;;;2.08;70.39
23427;BME280;41148;45.420;10.952;2023-12-04T02:59:48;101601.91;;;2.12;70.31
23427;BME280;41148;45.420;10.952;2023-12-04T03:02:16;101602.88;;;2.15;70.38
23427;BME280;41148;45.420;10.952;2023-12-04T03:04:43;101601.22;;;2.22;69.42
23427;BME280;41148;45.420;10.952;2023-12-04T03:07:11;101598.69;;;2.25;69.34
23427;BME280;41148;45.420;10.952;2023-12-04T03:09:38;101594.06;;;2.13;68.54
23427;BME280;41148;45.420;10.952;2023-12-04T03:12:18;101590.22;;;1.97;68.32
23427;BME280;41148;45.420;10.952;2023-12-04T03:14:46;101594.16;;;1.77;69.21
23427;BME280;41148;45.420;10.952;2023-12-04T03:17:13;101584.41;;;1.73;68.94
23427;BME280;41148;45.420;10.952;2023-12-04T03:19:40;101593.19;;;1.73;68.84
23427;BME280;41148;45.420;10.952;2023-12-04T03:22:08;101593.94;;;1.68;69.30
23427;BME280;41148;45.420;10.952;2023-12-04T03:24:35;101587.09;;;1.75;69.72
23427;BME280;41148;45.420;10.952;2023-12-04T03:27:03;101574.72;;;1.69;70.31
23427;BME280;41148;45.420;10.952;2023-12-04T03:29:30;101580.19;;;1.80;70.42
23427;BME280;41148;45.420;10.952;2023-12-04T03:31:58;101571.38;;;1.76;71.01
23427;BME280;41148;45.420;10.952;2023-12-04T03:34:25;101559.50;;;1.93;70.46
23427;BME280;41148;45.420;10.952;2023-12-04T03:36:53;101563.53;;;1.79;71.66
23427;BME280;41148;45.420;10.952;2023-12-04T03:39:20;101565.94;;;1.68;72.50
23427;BME280;41148;45.420;10.952;2023-12-04T03:41:48;101571.34;;;1.75;73.16
23427;BME280;41148;45.420;10.952;2023-12-04T03:44:15;101562.41;;;1.66;73.02
23427;BME280;41148;45.420;10.952;2023-12-04T03:46:43;101557.84;;;1.59;73.20
23427;BME280;41148;45.420;10.952;2023-12-04T03:49:10;101550.06;;;1.64;73.77
23427;BME280;41148;45.420;10.952;2023-12-04T03:51:37;101553.16;;;1.84;73.51
23427;BME280;41148;45.420;10.952;2023-12-04T03:54:05;101559.09;;;1.75;73.50
23427;BME280;41148;45.420;10.952;2023-12-04T03:56:32;101557.56;;;1.86;72.93
23427;BME280;41148;45.420;10.952;2023-12-04T03:59:00;101554.38;;;2.03;72.34
23427;BME280;41148;45.420;10.952;2023-12-04T04:01:27;101545.00;;;2.14;72.54
23427;BME280;41148;45.420;10.952;2023-12-04T04:03:55;101539.63;;;2.08;71.95
23427;BME280;41148;45.420;10.952;2023-12-04T04:06:22;101553.81;;;2.17;72.10
23427;BME280;41148;45.420;10.952;2023-12-04T04:08:50;101547.53;;;2.09;73.26
23427;BME280;41148;45.420;10.952;2023-12-04T04:11:17;101559.06;;;2.16;74.16
23427;BME280;41148;45.420;10.952;2023-12-04T04:13:44;101548.84;;;1.87;74.01
23427;BME280;41148;45.420;10.952;2023-12-04T04:16:15;101534.91;;;1.93;74.61
23427;BME280;41148;45.420;10.952;2023-12-04T04:18:43;101548.25;;;2.02;74.80
23427;BME280;41148;45.420;10.952;2023-12-04T04:21:11;101545.56;;;1.99;74.32
23427;BME280;41148;45.420;10.952;2023-12-04T04:23:38;101553.75;;;1.72;72.94
23427;BME280;41148;45.420;10.952;2023-12-04T04:26:06;101546.72;;;1.71;73.37
23427;BME280;41148;45.420;10.952;2023-12-04T04:28:34;101557.16;;;1.68;73.99
23427;BME280;41148;45.420;10.952;2023-12-04T04:31:01;101560.50;;;1.61;74.90
23427;BME280;41148;45.420;10.952;2023-12-04T04:33:29;101543.22;;;1.70;75.09
23427;BME280;41148;45.420;10.952;2023-12-04T04:35:56;101562.81;;;1.85;73.94
23427;BME280;41148;45.420;10.952;2023-12-04T04:38:24;101548.81;;;1.86;73.47
23427;BME280;41148;45.420;10.952;2023-12-04T04:40:51;101553.22;;;1.88;73.87
23427;BME280;41148;45.420;10.952;2023-12-04T04:43:20;101546.69;;;1.69;73.28
23427;BME280;41148;45.420;10.952;2023-12-04T04:45:47;101542.34;;;1.71;73.82
23427;BME280;41148;45.420;10.952;2023-12-04T04:48:15;101537.94;;;1.70;73.91
23427;BME280;41148;45.420;10.952;2023-12-04T04:50:42;101527.19;;;1.58;73.73
23427;BME280;41148;45.420;10.952;2023-12-04T04:53:09;101542.25;;;1.65;74.13
23427;BME280;41148;45.420;10.952;2023-12-04T04:55:39;101549.91;;;1.56;74.48
23427;BME280;41148;45.420;10.952;2023-12-04T04:58:31;101540.63;;;1.73;74.31
23427;BME280;41148;45.420;10.952;2023-12-04T05:00:58;101532.06;;;1.41;74.12
23427;BME280;41148;45.420;10.952;2023-12-04T05:03:26;101536.59;;;1.49;73.91
23427;BME280;41148;45.420;10.952;2023-12-04T05:05:53;101524.19;;;1.41;74.48
23427;BME280;41148;45.420;10.952;2023-12-04T05:08:21;101513.81;;;1.48;74.48
23427;BME280;41148;45.420;10.952;2023-12-04T05:10:48;101518.72;;;1.71;74.35
23427;BME280;41148;45.420;10.952;2023-12-04T05:13:16;101507.06;;;1.59;74.89
23427;BME280;41148;45.420;10.952;2023-12-04T05:15:43;101505.69;;;1.76;75.07
23427;BME280;41148;45.420;10.952;2023-12-04T05:18:10;101511.66;;;1.69;75.45
23427;BME280;41148;45.420;10.952;2023-12-04T05:20:38;101509.13;;;1.73;75.59
23427;BME280;41148;45.420;10.952;2023-12-04T05:23:05;101506.81;;;1.89;75.72
23427;BME280;41148;45.420;10.952;2023-12-04T05:25:33;101505.66;;;1.75;75.12
23427;BME280;41148;45.420;10.952;2023-12-04T05:28:11;101504.47;;;1.60;76.23
23427;BME280;41148;45.420;10.952;2023-12-04T05:30:38;101498.34;;;1.61;76.91
23427;BME280;41148;45.420;10.952;2023-12-04T05:33:06;101492.75;;;1.87;76.64
23427;BME280;41148;45.420;10.952;2023-12-04T05:35:33;101495.94;;;1.72;77.38
23427;BME280;41148;45.420;10.952;2023-12-04T05:38:03;101499.44;;;1.71;77.99
23427;BME280;41148;45.420;10.952;2023-12-04T05:40:30;101498.00;;;1.85;77.90
23427;BME280;41148;45.420;10.952;2023-12-04T05:42:58;101510.72;;;1.65;78.67
23427;BME280;41148;45.420;10.952;2023-12-04T05:45:25;101507.28;;;1.69;78.63
23427;BME280;41148;45.420;10.952;2023-12-04T05:47:53;101506.44;;;1.70;78.85
23427;BME280;41148;45.420;10.952;2023-12-04T05:50:20;101504.44;;;1.59;79.14
23427;BME280;41148;45.420;10.952;2023-12-04T05:52:48;101516.09;;;1.73;78.48
23427;BME280;41148;45.420;10.952;2023-12-04T05:55:15;101520.84;;;1.89;78.54
23427;BME280;41148;45.420;10.952;2023-12-04T05:57:43;101521.72;;;1.90;78.60
23427;BME280;41148;45.420;10.952;2023-12-04T06:00:12;101513.94;;;1.94;77.92
23427;BME280;41148;45.420;10.952;2023-12-04T06:02:41;101521.06;;;2.00;77.64
23427;BME280;41148;45.420;10.952;2023-12-04T06:05:09;101525.34;;;1.95;77.81
23427;BME280;41148;45.420;10.952;2023-12-04T06:07:37;101526.09;;;1.89;75.96
23427;BME280;41148;45.420;10.952;2023-12-04T06:10:05;101532.06;;;1.82;73.75
23427;BME280;41148;45.420;10.952;2023-12-04T06:12:33;101534.69;;;1.82;72.42
23427;BME280;41148;45.420;10.952;2023-12-04T06:15:01;101535.47;;;1.77;72.46
23427;BME280;41148;45.420;10.952;2023-12-04T06:17:30;101539.69;;;1.70;72.63
23427;BME280;41148;45.420;10.952;2023-12-04T06:19:57;101540.59;;;1.70;73.30
23427;BME280;41148;45.420;10.952;2023-12-04T06:22:25;101546.91;;;1.79;72.74
23427;BME280;41148;45.420;10.952;2023-12-04T06:24:53;101542.69;;;1.87;72.70
23427;BME280;41148;45.420;10.952;2023-12-04T06:27:21;101551.59;;;1.93;73.64
23427;BME280;41148;45.420;10.952;2023-12-04T06:29:49;101549.06;;;1.99;72.60
23427;BME280;41148;45.420;10.952;2023-12-04T06:32:19;101551.66;;;1.96;73.08
23427;BME280;41148;45.420;10.952;2023-12-04T06:34:47;101551.75;;;2.03;73.06
23427;BME280;41148;45.420;10.952;2023-12-04T06:37:15;101556.31;;;2.11;72.44
23427;BME280;41148;45.420;10.952;2023-12-04T06:39:45;101556.47;;;2.17;72.67
23427;BME280;41148;45.420;10.952;2023-12-04T06:42:13;101562.53;;;2.13;72.73
23427;BME280;41148;45.420;10.952;2023-12-04T06:44:41;101556.53;;;2.22;72.79
23427;BME280;41148;45.420;10.952;2023-12-04T06:47:09;101557.50;;;2.25;72.73
23427;BME280;41148;45.420;10.952;2023-12-04T06:49:36;101549.56;;;2.22;70.57
23427;BME280;41148;45.420;10.952;2023-12-04T06:52:04;101555.72;;;2.24;70.12
23427;BME280;41148;45.420;10.952;2023-12-04T06:54:32;101556.47;;;2.19;69.96
23427;BME280;41148;45.420;10.952;2023-12-04T06:56:59;101543.34;;;2.19;69.40
23427;BME280;41148;45.420;10.952;2023-12-04T06:59:27;101545.28;;;2.29;69.25
23427;BME280;41148;45.420;10.952;2023-12-04T07:01:55;101541.25;;;2.46;69.58
23427;BME280;41148;45.420;10.952;2023-12-04T07:04:22;101533.59;;;2.60;69.37
23427;BME280;41148;45.420;10.952;2023-12-04T07:06:50;101523.44;;;2.80;69.33
23427;BME280;41148;45.420;10.952;2023-12-04T07:09:18;101522.63;;;2.85;70.55
23427;BME280;41148;45.420;10.952;2023-12-04T07:11:45;101524.53;;;2.94;69.78
23427;BME280;41148;45.420;10.952;2023-12-04T07:14:13;101529.81;;;2.94;70.11
23427;BME280;41148;45.420;10.952;2023-12-04T07:16:42;101530.63;;;2.90;71.63
23427;BME280;41148;45.420;10.952;2023-12-04T07:19:10;101535.78;;;2.85;72.02
23427;BME280;41148;45.420;10.952;2023-12-04T07:21:43;101540.94;;;2.78;71.97
23427;BME280;41148;45.420;10.952;2023-12-04T07:24:17;101532.31;;;2.88;71.81
23427;BME280;41148;45.420;10.952;2023-12-04T07:26:45;101543.56;;;2.79;73.75
23427;BME280;41148;45.420;10.952;2023-12-04T07:29:12;101534.00;;;2.83;73.58
23427;BME280;41148;45.420;10.952;2023-12-04T07:31:43;101547.97;;;2.79;73.24
23427;BME280;41148;45.420;10.952;2023-12-04T07:34:10;101554.72;;;2.65;74.09
23427;BME280;41148;45.420;10.952;2023-12-04T07:36:38;101552.09;;;2.63;74.76
23427;BME280;41148;45.420;10.952;2023-12-04T07:39:05;101548.38;;;2.52;75.14
23427;BME280;41148;45.420;10.952;2023-12-04T07:41:34;101550.84;;;2.43;75.67
23427;BME280;41148;45.420;10.952;2023-12-04T07:44:01;101550.56;;;2.30;76.10
23427;BME280;41148;45.420;10.952;2023-12-04T07:46:29;101545.38;;;2.32;76.27
23427;BME280;41148;45.420;10.952;2023-12-04T07:48:56;101547.19;;;2.36;75.44
23427;BME280;41148;45.420;10.952;2023-12-04T07:51:24;101543.75;;;2.40;74.79
23427;BME280;41148;45.420;10.952;2023-12-04T07:53:51;101544.72;;;2.44;74.67
23427;BME280;41148;45.420;10.952;2023-12-04T07:56:25;101536.03;;;2.49;74.39
23427;BME280;41148;45.420;10.952;2023-12-04T07:58:56;101548.56;;;2.63;74.14
23427;BME280;41148;45.420;10.952;2023-12-04T08:01:24;101544.34;;;2.72;73.66
23427;BME280;41148;45.420;10.952;2023-12-04T08:03:52;101561.75;;;2.64;74.10
23427;BME280;41148;45.420;10.952;2023-12-04T08:06:20;101557.38;;;2.66;74.99
23427;BME280;41148;45.420;10.952;2023-12-04T08:08:48;101533.72;;;2.66;74.08
23427;BME280;41148;45.420;10.952;2023-12-04T08:11:15;101542.59;;;2.73;74.48
23427;BME280;41148;45.420;10.952;2023-12-04T08:13:43;101561.16;;;2.80;73.71
23427;BME280;41148;45.420;10.952;2023-12-04T08:16:14;101550.59;;;2.79;73.63
23427;BME280;41148;45.420;10.952;2023-12-04T08:18:42;101548.81;;;2.78;73.85
23427;BME280;41148;45.420;10.952;2023-12-04T08:21:11;101561.69;;;2.61;74.31
23427;BME280;41148;45.420;10.952;2023-12-04T08:23:39;101551.00;;;2.52;74.12
23427;BME280;41148;45.420;10.952;2023-12-04T08:26:07;101559.06;;;2.61;74.04
23427;BME280;41148;45.420;10.952;2023-12-04T08:28:35;101544.09;;;2.60;73.60
23427;BME280;41148;45.420;10.952;2023-12-04T08:31:05;101547.78;;;2.70;73.29
23427;BME280;41148;45.420;10.952;2023-12-04T08:33:36;101539.78;;;2.61;72.37
23427;BME280;41148;45.420;10.952;2023-12-04T08:36:04;101547.59;;;2.57;72.73
23427;BME280;41148;45.420;10.952;2023-12-04T08:38:32;101531.00;;;2.62;72.56
23427;BME280;41148;45.420;10.952;2023-12-04T08:40:59;101532.75;;;2.61;73.17
23427;BME280;41148;45.420;10.952;2023-12-04T08:43:27;101539.00;;;2.68;72.45
23427;BME280;41148;45.420;10.952;2023-12-04T08:45:56;101544.34;;;2.72;72.80
23427;BME280;41148;45.420;10.952;2023-12-04T08:48:23;101534.94;;;2.86;71.50
23427;BME280;41148;45.420;10.952;2023-12-04T08:50:53;101523.34;;;2.75;71.12
23427;BME280;41148;45.420;10.952;2023-12-04T08:53:20;101515.03;;;3.02;70.84
23427;BME280;41148;45.420;10.952;2023-12-04T08:55:48;101513.16;;;2.95;69.09
23427;BME280;41148;45.420;10.952;2023-12-04T08:58:15;101504.50;;;3.02;69.85
23427;BME280;41148;45.420;10.952;2023-12-04T09:00:43;101511.69;;;3.12;68.55
23427;BME280;41148;45.420;10.952;2023-12-04T09:03:11;101499.53;;;3.21;68.48
23427;BME280;41148;45.420;10.952;2023-12-04T09:05:48;101505.66;;;3.21;68.40
23427;BME280;41148;45.420;10.952;2023-12-04T09:08:19;101516.78;;;3.03;68.42
23427;BME280;41148;45.420;10.952;2023-12-04T09:11:03;101510.75;;;3.09;69.73
23427;BME280;41148;45.420;10.952;2023-12-04T09:13:49;101509.31;;;3.31;69.83
23427;BME280;41148;45.420;10.952;2023-12-04T09:16:20;101517.25;;;3.32;69.85
23427;BME280;41148;45.420;10.952;2023-12-04T09:18:48;101510.38;;;3.43;69.76
23427;BME280;41148;45.420;10.952;2023-12-04T09:21:22;101510.28;;;3.37;68.47
23427;BME280;41148;45.420;10.952;2023-12-04T09:23:49;101513.84;;;3.39;69.03
23427;BME280;41148;45.420;10.952;2023-12-04T09:26:18;101506.03;;;3.47;68.55
23427;BME280;41148;45.420;10.952;2023-12-04T09:28:46;101506.25;;;3.64;69.75
23427;BME280;41148;45.420;10.952;2023-12-04T09:31:13;101506.38;;;3.71;69.10
23427;BME280;41148;45.420;10.952;2023-12-04T09:33:41;101506.38;;;3.73;68.92
23427;BME280;41148;45.420;10.952;2023-12-04T09:36:09;101496.78;;;3.77;69.63
23427;BME280;41148;45.420;10.952;2023-12-04T09:38:40;101493.22;;;3.73;69.62
23427;BME280;41148;45.420;10.952;2023-12-04T09:41:10;101493.22;;;3.74;70.06
23427;BME280;41148;45.420;10.952;2023-12-04T09:43:47;101502.97;;;3.80;69.55
23427;BME280;41148;45.420;10.952;2023-12-04T09:46:19;101496.69;;;3.70;70.30
23427;BME280;41148;45.420;10.952;2023-12-04T09:48:46;101495.94;;;3.81;70.66
23427;BME280;41148;45.420;10.952;2023-12-04T09:51:14;101493.41;;;3.88;69.15
23427;BME280;41148;45.420;10.952;2023-12-04T09:53:47;101494.22;;;3.86;69.53
23427;BME280;41148;45.420;10.952;2023-12-04T09:56:16;101483.66;;;3.83;70.45
23427;BME280;41148;45.420;10.952;2023-12-04T09:58:45;101487.06;;;3.74;71.30
23427;BME280;41148;45.420;10.952;2023-12-04T10:01:13;101492.53;;;3.89;71.11
23427;BME280;41148;45.420;10.952;2023-12-04T10:03:41;101490.75;;;3.87;71.90
23427;BME280;41148;45.420;10.952;2023-12-04T10:06:18;101472.34;;;3.90;70.75
23427;BME280;41148;45.420;10.952;2023-12-04T10:08:46;101467.19;;;4.02;69.86
23427;BME280;41148;45.420;10.952;2023-12-04T10:11:20;101452.38;;;4.13;68.74
23427;BME280;41148;45.420;10.952;2023-12-04T10:13:47;101436.59;;;4.16;69.44
23427;BME280;41148;45.420;10.952;2023-12-04T10:16:36;101407.50;;;4.09;71.20
23427;BME280;41148;45.420;10.952;2023-12-04T10:19:20;101398.53;;;3.93;68.30
23427;BME280;41148;45.420;10.952;2023-12-04T10:21:49;101388.78;;;3.83;69.65
23427;BME280;41148;45.420;10.952;2023-12-04T10:24:34;101375.06;;;4.17;69.28
23427;BME280;41148;45.420;10.952;2023-12-04T10:27:10;101379.56;;;4.32;67.16
23427;BME280;41148;45.420;10.952;2023-12-04T10:29:50;101369.91;;;4.31;67.22
23427;BME280;41148;45.420;10.952;2023-12-04T10:32:20;101381.28;;;4.25;68.66
23427;BME280;41148;45.420;10.952;2023-12-04T10:34:50;101389.94;;;4.12;70.75
23427;BME280;41148;45.420;10.952;2023-12-04T10:37:18;101390.75;;;4.03;71.78
23427;BME280;41148;45.420;10.952;2023-12-04T10:39:51;101384.53;;;3.97;72.24
23427;BME280;41148;45.420;10.952;2023-12-04T10:44:57;101375.84;;;4.07;71.00
23427;BME280;41148;45.420;10.952;2023-12-04T10:47:27;101377.63;;;4.11;71.03
23427;BME280;41148;45.420;10.952;2023-12-04T10:49:55;101360.13;;;4.19;70.69
23427;BME280;41148;45.420;10.952;2023-12-04T10:52:24;101369.00;;;4.30;70.45
23427;BME280;41148;45.420;10.952;2023-12-04T10:54:51;101381.34;;;4.33;71.09
23427;BME280;41148;45.420;10.952;2023-12-04T10:57:26;101373.47;;;4.38;70.66
23427;BME280;41148;45.420;10.952;2023-12-04T11:00:02;101361.97;;;4.31;70.79
23427;BME280;41148;45.420;10.952;2023-12-04T11:02:34;101368.19;;;4.35;71.10
23427;BME280;41148;45.420;10.952;2023-12-04T11:05:07;101348.88;;;4.42;71.37
23427;BME280;41148;45.420;10.952;2023-12-04T11:07:44;101356.88;;;4.52;71.15
23427;BME280;41148;45.420;10.952;2023-12-04T11:13:19;101350.78;;;4.61;72.12
23427;BME280;41148;45.420;10.952;2023-12-04T11:15:50;101328.84;;;4.67;70.16
23427;BME280;41148;45.420;10.952;2023-12-04T11:18:23;101332.34;;;4.70;70.59
23427;BME280;41148;45.420;10.952;2023-12-04T11:20:55;101327.16;;;4.82;71.53
23427;BME280;41148;45.420;10.952;2023-12-04T11:23:24;101313.97;;;4.85;70.83
23427;BME280;41148;45.420;10.952;2023-12-04T11:25:53;101310.50;;;4.94;68.66
23427;BME280;41148;45.420;10.952;2023-12-04T11:28:21;101320.25;;;5.06;66.60
23427;BME280;41148;45.420;10.952;2023-12-04T11:30:49;101320.28;;;5.13;66.45
23427;BME280;41148;45.420;10.952;2023-12-04T11:33:18;101300.00;;;5.05;65.94
23427;BME280;41148;45.420;10.952;2023-12-04T11:35:46;101305.34;;;5.23;65.03
23427;BME280;41148;45.420;10.952;2023-12-04T11:38:14;101307.16;;;5.35;64.39
23427;BME280;41148;45.420;10.952;2023-12-04T11:40:41;101298.38;;;5.40;65.38
23427;BME280;41148;45.420;10.952;2023-12-04T11:43:23;101307.13;;;5.30;66.02
23427;BME280;41148;45.420;10.952;2023-12-04T11:45:51;101297.50;;;5.44;65.59
23427;BME280;41148;45.420;10.952;2023-12-04T11:48:23;101301.00;;;5.45;65.68
23427;BME280;41148;45.420;10.952;2023-12-04T11:50:51;101297.50;;;5.44;67.03
23427;BME280;41148;45.420;10.952;2023-12-04T11:53:20;101287.78;;;5.50;64.98
23427;BME280;41148;45.420;10.952;2023-12-04T11:55:47;101286.06;;;5.55;64.90
23427;BME280;41148;45.420;10.952;2023-12-04T11:58:15;101292.22;;;5.55;64.32
23427;BME280;41148;45.420;10.952;2023-12-04T12:00:43;101276.38;;;5.57;64.26
23427;BME280;41148;45.420;10.952;2023-12-04T12:03:14;101280.69;;;5.29;62.57
23427;BME280;41148;45.420;10.952;2023-12-04T12:05:50;101271.91;;;5.34;63.77
23427;BME280;41148;45.420;10.952;2023-12-04T12:08:22;101278.09;;;5.33;64.66
23427;BME280;41148;45.420;10.952;2023-12-04T12:10:50;101255.19;;;5.38;63.82
23427;BME280;41148;45.420;10.952;2023-12-04T12:13:20;101256.09;;;5.48;63.74
23427;BME280;41148;45.420;10.952;2023-12-04T12:15:48;101253.44;;;5.46;63.33
23427;BME280;41148;45.420;10.952;2023-12-04T12:18:18;101252.56;;;5.46;62.72
23427;BME280;41148;45.420;10.952;2023-12-04T12:20:46;101249.06;;;5.50;63.09
23427;BME280;41148;45.420;10.952;2023-12-04T12:23:13;101251.69;;;5.59;62.41
23427;BME280;41148;45.420;10.952;2023-12-04T12:25:41;101258.75;;;5.54;62.37
23427;BME280;41148;45.420;10.952;2023-12-04T12:28:10;101254.38;;;5.61;64.20
23427;BME280;41148;45.420;10.952;2023-12-04T12:30:37;101255.22;;;5.69;62.88
23427;BME280;41148;45.420;10.952;2023-12-04T12:33:05;101255.25;;;5.64;62.56
23427;BME280;41148;45.420;10.952;2023-12-04T12:35:32;101249.06;;;5.58;62.41
23427;BME280;41148;45.420;10.952;2023-12-04T12:38:00;101242.03;;;5.60;62.20
23427;BME280;41148;45.420;10.952;2023-12-04T12:40:28;101242.00;;;5.54;61.53
23427;BME280;41148;45.420;10.952;2023-12-04T12:43:06;101233.19;;;5.49;61.82
23427;BME280;41148;45.420;10.952;2023-12-04T12:45:42;101231.44;;;5.43;62.28
23427;BME280;41148;45.420;10.952;2023-12-04T12:48:19;101213.78;;;5.48;62.52
23427;BME280;41148;45.420;10.952;2023-12-04T12:50:47;101210.28;;;5.55;62.11
23427;BME280;41148;45.420;10.952;2023-12-04T12:53:17;101210.28;;;5.55;61.66
23427;BME280;41148;45.420;10.952;2023-12-04T12:55:45;101212.06;;;5.50;60.99
23427;BME280;41148;45.420;10.952;2023-12-04T12:58:14;101216.47;;;5.51;61.73
23427;BME280;41148;45.420;10.952;2023-12-04T13:00:43;101209.41;;;5.53;61.35
23427;BME280;41148;45.420;10.952;2023-12-04T13:03:14;101208.53;;;5.59;61.74
23427;BME280;41148;45.420;10.952;2023-12-04T13:05:42;101222.63;;;5.52;63.15